Terminal Aerodrome Forecast
Issued by NWS Goodland, KS

Home | Current Version | Previous Version | Text Only | Print | Product List | Glossary On
Versions: 1 2 3 4 5 6 7 8 9 10 11 12 13 14 15 16 17 18 19 20
061
FTUS43 KGLD 192335
TAFGLD
TAF
KGLD 192335Z 2000/2024 06011KT P6SM BKN008 OVC030
      TEMPO 2000/2004 5SM BR SCT008 BKN030
     FM200400 03008KT 3SM BR OVC003
     FM200700 01007KT 1SM BR OVC002
     FM201500 03008KT P6SM OVC003
     FM201700 04009KT P6SM BKN012
     FM202200 05009KT P6SM BKN025=

USA.gov is the U.S. government's official web portal to all federal, state and local government web resources and services.